sensor_id;sensor_type;location;lat;lon;timestamp;P1;durP1;ratioP1;P2;durP2;ratioP2
59986;SDS011;46181;51.498;5.392;2023-07-24T00:03:23;0.172;;;0.1;;
59986;SDS011;46181;51.498;5.392;2023-07-24T00:07:53;0;;;0;;
59986;SDS011;46181;51.498;5.392;2023-07-24T00:12:23;0;;;0;;
59986;SDS011;46181;51.498;5.392;2023-07-24T00:16:53;0.68;;;0.096;;
59986;SDS011;46181;51.498;5.392;2023-07-24T00:21:23;0.064;;;0.064;;
59986;SDS011;46181;51.498;5.392;2023-07-24T00:25:53;0.1;;;0.1;;
59986;SDS011;46181;51.498;5.392;2023-07-24T00:30:23;0;;;0;;
59986;SDS011;46181;51.498;5.392;2023-07-24T00:34:53;0.024;;;0.024;;
59986;SDS011;46181;51.498;5.392;2023-07-24T00:39:23;0;;;0;;
59986;SDS011;46181;51.498;5.392;2023-07-24T00:43:53;0.084;;;0.084;;
59986;SDS011;46181;51.498;5.392;2023-07-24T00:48:23;0;;;0;;
59986;SDS011;46181;51.498;5.392;2023-07-24T00:52:53;0;;;0;;
59986;SDS011;46181;51.498;5.392;2023-07-24T00:57:23;0;;;0;;
59986;SDS011;46181;51.498;5.392;2023-07-24T01:01:53;0;;;0;;
59986;SDS011;46181;51.498;5.392;2023-07-24T01:06:23;0;;;0;;
59986;SDS011;46181;51.498;5.392;2023-07-24T01:10:53;0;;;0;;
59986;SDS011;46181;51.498;5.392;2023-07-24T01:15:24;0;;;0;;
59986;SDS011;46181;51.498;5.392;2023-07-24T01:19:54;0.08;;;0.08;;
59986;SDS011;46181;51.498;5.392;2023-07-24T01:24:28;0;;;0;;
59986;SDS011;46181;51.498;5.392;2023-07-24T01:28:53;0.1;;;0.1;;
59986;SDS011;46181;51.498;5.392;2023-07-24T01:33:23;0.116;;;0.116;;
59986;SDS011;46181;51.498;5.392;2023-07-24T01:37:53;0.28;;;0.248;;
59986;SDS011;46181;51.498;5.392;2023-07-24T01:42:23;0.456;;;0.096;;
59986;SDS011;46181;51.498;5.392;2023-07-24T01:46:53;0;;;0;;
59986;SDS011;46181;51.498;5.392;2023-07-24T01:51:23;0;;;0;;
59986;SDS011;46181;51.498;5.392;2023-07-24T01:55:53;0.056;;;0.056;;
59986;SDS011;46181;51.498;5.392;2023-07-24T02:00:23;0.1;;;0.1;;
59986;SDS011;46181;51.498;5.392;2023-07-24T02:04:53;0.1;;;0.1;;
59986;SDS011;46181;51.498;5.392;2023-07-24T02:09:23;0;;;0;;
59986;SDS011;46181;51.498;5.392;2023-07-24T02:13:53;0;;;0;;
59986;SDS011;46181;51.498;5.392;2023-07-24T02:18:23;0.1;;;0.1;;
59986;SDS011;46181;51.498;5.392;2023-07-24T02:22:53;0.016;;;0.016;;
59986;SDS011;46181;51.498;5.392;2023-07-24T02:27:30;0.016;;;0.016;;
59986;SDS011;46181;51.498;5.392;2023-07-24T02:31:53;0.476;;;0.1;;
59986;SDS011;46181;51.498;5.392;2023-07-24T02:36:23;0.024;;;0.024;;
59986;SDS011;46181;51.498;5.392;2023-07-24T02:40:53;0.1;;;0.1;;
59986;SDS011;46181;51.498;5.392;2023-07-24T02:45:23;0.228;;;0.228;;
59986;SDS011;46181;51.498;5.392;2023-07-24T02:49:53;0;;;0;;
59986;SDS011;46181;51.498;5.392;2023-07-24T02:54:23;0.1;;;0.1;;
59986;SDS011;46181;51.498;5.392;2023-07-24T02:58:53;0;;;0;;
59986;SDS011;46181;51.498;5.392;2023-07-24T03:03:23;0.1;;;0.1;;
59986;SDS011;46181;51.498;5.392;2023-07-24T03:07:53;0.124;;;0.124;;
59986;SDS011;46181;51.498;5.392;2023-07-24T03:12:23;0;;;0;;
59986;SDS011;46181;51.498;5.392;2023-07-24T03:16:53;0.056;;;0.056;;
59986;SDS011;46181;51.498;5.392;2023-07-24T03:21:23;0.008;;;0.008;;
59986;SDS011;46181;51.498;5.392;2023-07-24T03:25:53;0;;;0;;
59986;SDS011;46181;51.498;5.392;2023-07-24T03:30:23;0;;;0;;
59986;SDS011;46181;51.498;5.392;2023-07-24T03:34:53;0;;;0;;
59986;SDS011;46181;51.498;5.392;2023-07-24T03:39:23;0.112;;;0.112;;
59986;SDS011;46181;51.498;5.392;2023-07-24T03:43:53;0;;;0;;
59986;SDS011;46181;51.498;5.392;2023-07-24T03:48:23;0.26;;;0.1;;
59986;SDS011;46181;51.498;5.392;2023-07-24T03:52:53;0.012;;;0.012;;
59986;SDS011;46181;51.498;5.392;2023-07-24T03:57:23;0.04;;;0.04;;
59986;SDS011;46181;51.498;5.392;2023-07-24T04:01:53;0;;;0;;
59986;SDS011;46181;51.498;5.392;2023-07-24T04:06:23;0;;;0;;
59986;SDS011;46181;51.498;5.392;2023-07-24T04:10:53;0;;;0;;
59986;SDS011;46181;51.498;5.392;2023-07-24T04:15:23;0.016;;;0.016;;
59986;SDS011;46181;51.498;5.392;2023-07-24T04:19:53;0.016;;;0.016;;
59986;SDS011;46181;51.498;5.392;2023-07-24T04:24:23;0;;;0;;
59986;SDS011;46181;51.498;5.392;2023-07-24T04:28:53;0;;;0;;
59986;SDS011;46181;51.498;5.392;2023-07-24T04:33:23;0;;;0;;
59986;SDS011;46181;51.498;5.392;2023-07-24T04:37:53;0;;;0;;
59986;SDS011;46181;51.498;5.392;2023-07-24T04:42:23;0.1;;;0.1;;
59986;SDS011;46181;51.498;5.392;2023-07-24T04:46:53;0;;;0;;
59986;SDS011;46181;51.498;5.392;2023-07-24T04:51:23;0.016;;;0.016;;
59986;SDS011;46181;51.498;5.392;2023-07-24T04:55:53;0.004;;;0.004;;
59986;SDS011;46181;51.498;5.392;2023-07-24T05:00:23;0;;;0;;
59986;SDS011;46181;51.498;5.392;2023-07-24T05:04:53;0;;;0;;
59986;SDS011;46181;51.498;5.392;2023-07-24T05:09:23;0;;;0;;
59986;SDS011;46181;51.498;5.392;2023-07-24T05:13:53;0.016;;;0.016;;
59986;SDS011;46181;51.498;5.392;2023-07-24T05:18:23;0;;;0;;
59986;SDS011;46181;51.498;5.392;2023-07-24T05:22:53;0;;;0;;
59986;SDS011;46181;51.498;5.392;2023-07-24T05:27:23;0.1;;;0.1;;
59986;SDS011;46181;51.498;5.392;2023-07-24T05:31:53;0.016;;;0.016;;
59986;SDS011;46181;51.498;5.392;2023-07-24T05:36:23;0;;;0;;
59986;SDS011;46181;51.498;5.392;2023-07-24T05:40:57;0.1;;;0.1;;
59986;SDS011;46181;51.498;5.392;2023-07-24T05:45:23;0;;;0;;
59986;SDS011;46181;51.498;5.392;2023-07-24T05:49:53;0.056;;;0.056;;
59986;SDS011;46181;51.498;5.392;2023-07-24T05:54:23;0.016;;;0.016;;
59986;SDS011;46181;51.498;5.392;2023-07-24T05:58:53;0.46;;;0.244;;
59986;SDS011;46181;51.498;5.392;2023-07-24T06:03:23;0.04;;;0.04;;
59986;SDS011;46181;51.498;5.392;2023-07-24T06:07:54;0.072;;;0.072;;
59986;SDS011;46181;51.498;5.392;2023-07-24T06:12:23;0.084;;;0.084;;
59986;SDS011;46181;51.498;5.392;2023-07-24T06:16:53;0;;;0;;
59986;SDS011;46181;51.498;5.392;2023-07-24T06:21:23;0.016;;;0.016;;
59986;SDS011;46181;51.498;5.392;2023-07-24T06:25:53;0.136;;;0.1;;
59986;SDS011;46181;51.498;5.392;2023-07-24T06:30:23;0.08;;;0.08;;
59986;SDS011;46181;51.498;5.392;2023-07-24T06:34:53;0.1;;;0.1;;
59986;SDS011;46181;51.498;5.392;2023-07-24T06:39:23;0;;;0;;
59986;SDS011;46181;51.498;5.392;2023-07-24T06:43:53;0;;;0;;
59986;SDS011;46181;51.498;5.392;2023-07-24T06:48:23;0.024;;;0.024;;
59986;SDS011;46181;51.498;5.392;2023-07-24T06:52:53;0.1;;;0.1;;
59986;SDS011;46181;51.498;5.392;2023-07-24T06:57:23;0.1;;;0.1;;
59986;SDS011;46181;51.498;5.392;2023-07-24T07:01:53;0.08;;;0.08;;
59986;SDS011;46181;51.498;5.392;2023-07-24T07:06:23;0;;;0;;
59986;SDS011;46181;51.498;5.392;2023-07-24T07:10:58;0.1;;;0.1;;
59986;SDS011;46181;51.498;5.392;2023-07-24T07:15:23;0.048;;;0.048;;
59986;SDS011;46181;51.498;5.392;2023-07-24T07:19:53;0.1;;;0.1;;
59986;SDS011;46181;51.498;5.392;2023-07-24T07:24:23;0.04;;;0.04;;
59986;SDS011;46181;51.498;5.392;2023-07-24T07:28:53;0.016;;;0.016;;
59986;SDS011;46181;51.498;5.392;2023-07-24T07:33:23;0.016;;;0.016;;
59986;SDS011;46181;51.498;5.392;2023-07-24T07:37:53;0.188;;;0.188;;
59986;SDS011;46181;51.498;5.392;2023-07-24T07:42:23;0.16;;;0.16;;
59986;SDS011;46181;51.498;5.392;2023-07-24T07:46:53;0.1;;;0.1;;
59986;SDS011;46181;51.498;5.392;2023-07-24T07:51:23;0.012;;;0.012;;
59986;SDS011;46181;51.498;5.392;2023-07-24T07:55:58;0.016;;;0.016;;
59986;SDS011;46181;51.498;5.392;2023-07-24T08:00:23;0.044;;;0.044;;
59986;SDS011;46181;51.498;5.392;2023-07-24T08:04:53;0.016;;;0.016;;
59986;SDS011;46181;51.498;5.392;2023-07-24T08:09:23;0;;;0;;
59986;SDS011;46181;51.498;5.392;2023-07-24T08:13:53;0.04;;;0.04;;
59986;SDS011;46181;51.498;5.392;2023-07-24T08:18:23;0.048;;;0.048;;
59986;SDS011;46181;51.498;5.392;2023-07-24T08:22:53;0.064;;;0.064;;
59986;SDS011;46181;51.498;5.392;2023-07-24T08:27:23;0.56;;;0.152;;
59986;SDS011;46181;51.498;5.392;2023-07-24T08:31:53;0.1;;;0.1;;
59986;SDS011;46181;51.498;5.392;2023-07-24T08:36:23;0.336;;;0.336;;
59986;SDS011;46181;51.498;5.392;2023-07-24T08:40:54;0.1;;;0.1;;
59986;SDS011;46181;51.498;5.392;2023-07-24T08:45:23;0.572;;;0.184;;
59986;SDS011;46181;51.498;5.392;2023-07-24T08:49:53;0.18;;;0.18;;
59986;SDS011;46181;51.498;5.392;2023-07-24T08:54:23;0;;;0;;
59986;SDS011;46181;51.498;5.392;2023-07-24T08:58:53;0;;;0;;
59986;SDS011;46181;51.498;5.392;2023-07-24T09:03:23;0;;;0;;
59986;SDS011;46181;51.498;5.392;2023-07-24T09:07:53;0.132;;;0.132;;
59986;SDS011;46181;51.498;5.392;2023-07-24T09:12:23;0.2;;;0.2;;
59986;SDS011;46181;51.498;5.392;2023-07-24T09:17:00;0.032;;;0.032;;
59986;SDS011;46181;51.498;5.392;2023-07-24T09:21:32;0.316;;;0.316;;
59986;SDS011;46181;51.498;5.392;2023-07-24T09:25:53;0.1;;;0.1;;
59986;SDS011;46181;51.498;5.392;2023-07-24T09:30:23;1.52;;;0.1;;
59986;SDS011;46181;51.498;5.392;2023-07-24T09:34:53;0.032;;;0.032;;
59986;SDS011;46181;51.498;5.392;2023-07-24T09:39:26;0.064;;;0.064;;
59986;SDS011;46181;51.498;5.392;2023-07-24T09:43:57;0.1;;;0.1;;
59986;SDS011;46181;51.498;5.392;2023-07-24T09:48:24;0.1;;;0.1;;
59986;SDS011;46181;51.498;5.392;2023-07-24T09:52:53;0.1;;;0.1;;
59986;SDS011;46181;51.498;5.392;2023-07-24T09:57:23;0.1;;;0.1;;
59986;SDS011;46181;51.498;5.392;2023-07-24T10:01:53;0;;;0;;
59986;SDS011;46181;51.498;5.392;2023-07-24T10:06:23;0.1;;;0.1;;
59986;SDS011;46181;51.498;5.392;2023-07-24T10:10:53;0.012;;;0.012;;
59986;SDS011;46181;51.498;5.392;2023-07-24T10:15:23;0;;;0;;
59986;SDS011;46181;51.498;5.392;2023-07-24T10:20:01;0;;;0;;
59986;SDS011;46181;51.498;5.392;2023-07-24T10:24:28;0;;;0;;
59986;SDS011;46181;51.498;5.392;2023-07-24T10:28:53;0.1;;;0.1;;
59986;SDS011;46181;51.498;5.392;2023-07-24T10:33:23;0.1;;;0.1;;
59986;SDS011;46181;51.498;5.392;2023-07-24T10:37:58;0.128;;;0.128;;
59986;SDS011;46181;51.498;5.392;2023-07-24T10:42:23;0.1;;;0.1;;
59986;SDS011;46181;51.498;5.392;2023-07-24T10:46:53;0.192;;;0.192;;
59986;SDS011;46181;51.498;5.392;2023-07-24T10:51:23;0.012;;;0.012;;
59986;SDS011;46181;51.498;5.392;2023-07-24T10:55:53;0.1;;;0.1;;
59986;SDS011;46181;51.498;5.392;2023-07-24T11:00:25;0.1;;;0.1;;
59986;SDS011;46181;51.498;5.392;2023-07-24T11:04:53;0;;;0;;
59986;SDS011;46181;51.498;5.392;2023-07-24T11:09:33;0.1;;;0.1;;
59986;SDS011;46181;51.498;5.392;2023-07-24T11:13:53;0;;;0;;
59986;SDS011;46181;51.498;5.392;2023-07-24T11:18:23;0.072;;;0.072;;
59986;SDS011;46181;51.498;5.392;2023-07-24T11:22:53;0.2;;;0.2;;
59986;SDS011;46181;51.498;5.392;2023-07-24T11:27:24;0.164;;;0.164;;
59986;SDS011;46181;51.498;5.392;2023-07-24T11:31:57;0.1;;;0.1;;
59986;SDS011;46181;51.498;5.392;2023-07-24T11:36:23;0.092;;;0.092;;
59986;SDS011;46181;51.498;5.392;2023-07-24T11:40:54;0.584;;;0.112;;
59986;SDS011;46181;51.498;5.392;2023-07-24T11:45:23;0.008;;;0.008;;
59986;SDS011;46181;51.498;5.392;2023-07-24T11:50:00;0.1;;;0.1;;
59986;SDS011;46181;51.498;5.392;2023-07-24T11:54:23;0.124;;;0.124;;
59986;SDS011;46181;51.498;5.392;2023-07-24T11:58:53;0.104;;;0.104;;
59986;SDS011;46181;51.498;5.392;2023-07-24T12:03:24;0.108;;;0.1;;
59986;SDS011;46181;51.498;5.392;2023-07-24T12:07:54;0.036;;;0.036;;
59986;SDS011;46181;51.498;5.392;2023-07-24T12:12:23;0.1;;;0.1;;
59986;SDS011;46181;51.498;5.392;2023-07-24T12:16:53;0;;;0;;
59986;SDS011;46181;51.498;5.392;2023-07-24T12:21:23;0.188;;;0.14;;
59986;SDS011;46181;51.498;5.392;2023-07-24T12:25:53;0;;;0;;
59986;SDS011;46181;51.498;5.392;2023-07-24T12:30:23;0.168;;;0.12;;
59986;SDS011;46181;51.498;5.392;2023-07-24T12:34:53;0;;;0;;
59986;SDS011;46181;51.498;5.392;2023-07-24T12:39:23;0.1;;;0.1;;
59986;SDS011;46181;51.498;5.392;2023-07-24T12:43:53;0.176;;;0.176;;
59986;SDS011;46181;51.498;5.392;2023-07-24T12:48:23;0.2;;;0.2;;
59986;SDS011;46181;51.498;5.392;2023-07-24T12:52:53;0.092;;;0.092;;
59986;SDS011;46181;51.498;5.392;2023-07-24T12:57:23;0.024;;;0.024;;
59986;SDS011;46181;51.498;5.392;2023-07-24T13:01:53;0.1;;;0.1;;
59986;SDS011;46181;51.498;5.392;2023-07-24T13:06:23;0.112;;;0.096;;
59986;SDS011;46181;51.498;5.392;2023-07-24T13:10:53;0.1;;;0.1;;
59986;SDS011;46181;51.498;5.392;2023-07-24T13:15:23;0.164;;;0.164;;
59986;SDS011;46181;51.498;5.392;2023-07-24T13:19:53;0.2;;;0.2;;
59986;SDS011;46181;51.498;5.392;2023-07-24T13:24:23;0.1;;;0.1;;
59986;SDS011;46181;51.498;5.392;2023-07-24T13:28:53;0.172;;;0.172;;
59986;SDS011;46181;51.498;5.392;2023-07-24T13:33:23;0.008;;;0.008;;
59986;SDS011;46181;51.498;5.392;2023-07-24T13:37:53;0.1;;;0.1;;
59986;SDS011;46181;51.498;5.392;2023-07-24T13:42:23;0.024;;;0.024;;
59986;SDS011;46181;51.498;5.392;2023-07-24T13:46:53;0.132;;;0.116;;
59986;SDS011;46181;51.498;5.392;2023-07-24T13:51:24;0.384;;;0.36;;
59986;SDS011;46181;51.498;5.392;2023-07-24T13:55:53;0.388;;;0.2;;
59986;SDS011;46181;51.498;5.392;2023-07-24T14:00:23;0.14;;;0.14;;
59986;SDS011;46181;51.498;5.392;2023-07-24T14:04:54;0.1;;;0.1;;
59986;SDS011;46181;51.498;5.392;2023-07-24T14:09:23;0.268;;;0.236;;
59986;SDS011;46181;51.498;5.392;2023-07-24T14:13:53;3.159999;;;0.2;;
59986;SDS011;46181;51.498;5.392;2023-07-24T14:18:23;0.116;;;0.1;;
59986;SDS011;46181;51.498;5.392;2023-07-24T14:22:54;0.144;;;0.144;;
59986;SDS011;46181;51.498;5.392;2023-07-24T14:27:23;0.108;;;0.108;;
59986;SDS011;46181;51.498;5.392;2023-07-24T14:31:53;0.124;;;0.124;;
59986;SDS011;46181;51.498;5.392;2023-07-24T14:36:23;0.124;;;0.124;;
59986;SDS011;46181;51.498;5.392;2023-07-24T14:40:53;0.1;;;0.1;;
59986;SDS011;46181;51.498;5.392;2023-07-24T14:45:24;0.1;;;0.1;;
59986;SDS011;46181;51.498;5.392;2023-07-24T14:49:53;0.352;;;0.312;;
59986;SDS011;46181;51.498;5.392;2023-07-24T14:54:24;0.152;;;0.152;;
59986;SDS011;46181;51.498;5.392;2023-07-24T14:58:53;0.1;;;0.1;;
59986;SDS011;46181;51.498;5.392;2023-07-24T15:03:23;0.032;;;0.032;;
59986;SDS011;46181;51.498;5.392;2023-07-24T15:07:53;0.072;;;0.072;;
59986;SDS011;46181;51.498;5.392;2023-07-24T15:12:23;0.352;;;0.224;;
59986;SDS011;46181;51.498;5.392;2023-07-24T15:16:54;0.1;;;0.1;;
59986;SDS011;46181;51.498;5.392;2023-07-24T15:21:24;1.036;;;1.02;;
59986;SDS011;46181;51.498;5.392;2023-07-24T15:25:54;0.048;;;0.048;;
59986;SDS011;46181;51.498;5.392;2023-07-24T15:30:24;0.352;;;0.26;;
59986;SDS011;46181;51.498;5.392;2023-07-24T15:34:54;0.14;;;0.14;;
59986;SDS011;46181;51.498;5.392;2023-07-24T15:39:24;0.168;;;0.1;;
59986;SDS011;46181;51.498;5.392;2023-07-24T15:43:53;0.116;;;0.116;;
59986;SDS011;46181;51.498;5.392;2023-07-24T15:48:23;0.1;;;0.1;;
59986;SDS011;46181;51.498;5.392;2023-07-24T15:52:54;0.236;;;0.228;;
59986;SDS011;46181;51.498;5.392;2023-07-24T15:57:24;0.208;;;0.176;;
59986;SDS011;46181;51.498;5.392;2023-07-24T16:01:54;0.32;;;0.26;;
59986;SDS011;46181;51.498;5.392;2023-07-24T16:06:24;0.16;;;0.16;;
59986;SDS011;46181;51.498;5.392;2023-07-24T16:10:54;0.1;;;0.1;;
59986;SDS011;46181;51.498;5.392;2023-07-24T16:15:24;0.1;;;0.1;;
59986;SDS011;46181;51.498;5.392;2023-07-24T16:19:54;0.1;;;0.1;;
59986;SDS011;46181;51.498;5.392;2023-07-24T16:24:24;0.528;;;0.528;;
59986;SDS011;46181;51.498;5.392;2023-07-24T16:28:54;0.1;;;0.1;;
59986;SDS011;46181;51.498;5.392;2023-07-24T16:33:24;1.456;;;0.884;;
59986;SDS011;46181;51.498;5.392;2023-07-24T16:37:54;0.168;;;0.084;;
59986;SDS011;46181;51.498;5.392;2023-07-24T16:42:24;0.1;;;0.1;;
59986;SDS011;46181;51.498;5.392;2023-07-24T16:46:54;0.26;;;0.144;;
59986;SDS011;46181;51.498;5.392;2023-07-24T16:51:24;0.1;;;0.1;;
59986;SDS011;46181;51.498;5.392;2023-07-24T16:55:54;0.316;;;0.196;;
59986;SDS011;46181;51.498;5.392;2023-07-24T17:00:24;0.072;;;0.072;;
59986;SDS011;46181;51.498;5.392;2023-07-24T17:04:54;0.044;;;0.044;;
59986;SDS011;46181;51.498;5.392;2023-07-24T17:09:24;0.1;;;0.1;;
59986;SDS011;46181;51.498;5.392;2023-07-24T17:13:54;0.316;;;0.2;;
59986;SDS011;46181;51.498;5.392;2023-07-24T17:18:24;0.1;;;0.1;;
59986;SDS011;46181;51.498;5.392;2023-07-24T17:22:54;0.096;;;0.096;;
59986;SDS011;46181;51.498;5.392;2023-07-24T17:27:24;0;;;0;;
59986;SDS011;46181;51.498;5.392;2023-07-24T17:31:54;0.1;;;0.1;;
59986;SDS011;46181;51.498;5.392;2023-07-24T17:36:24;0.1;;;0.1;;
59986;SDS011;46181;51.498;5.392;2023-07-24T17:40:54;0.044;;;0.044;;
59986;SDS011;46181;51.498;5.392;2023-07-24T17:45:24;0;;;0;;
59986;SDS011;46181;51.498;5.392;2023-07-24T17:49:54;0.1;;;0.1;;
59986;SDS011;46181;51.498;5.392;2023-07-24T17:54:24;0.1;;;0.1;;
59986;SDS011;46181;51.498;5.392;2023-07-24T17:58:54;0.016;;;0.016;;
59986;SDS011;46181;51.498;5.392;2023-07-24T18:03:24;0.1;;;0.1;;
59986;SDS011;46181;51.498;5.392;2023-07-24T18:07:54;0.1;;;0.1;;
59986;SDS011;46181;51.498;5.392;2023-07-24T18:12:24;0.116;;;0.116;;
59986;SDS011;46181;51.498;5.392;2023-07-24T18:16:54;0;;;0;;
59986;SDS011;46181;51.498;5.392;2023-07-24T18:21:24;0.1;;;0.1;;
59986;SDS011;46181;51.498;5.392;2023-07-24T18:25:54;0;;;0;;
59986;SDS011;46181;51.498;5.392;2023-07-24T18:30:24;0.06;;;0.06;;
59986;SDS011;46181;51.498;5.392;2023-07-24T18:34:54;0;;;0;;
59986;SDS011;46181;51.498;5.392;2023-07-24T18:39:24;0;;;0;;
59986;SDS011;46181;51.498;5.392;2023-07-24T18:43:54;0;;;0;;
59986;SDS011;46181;51.498;5.392;2023-07-24T18:48:24;0.044;;;0.044;;
59986;SDS011;46181;51.498;5.392;2023-07-24T18:52:54;0;;;0;;
59986;SDS011;46181;51.498;5.392;2023-07-24T18:57:24;0.1;;;0.1;;
59986;SDS011;46181;51.498;5.392;2023-07-24T19:01:54;0.1;;;0.1;;
59986;SDS011;46181;51.498;5.392;2023-07-24T19:06:24;0;;;0;;
59986;SDS011;46181;51.498;5.392;2023-07-24T19:10:54;0;;;0;;
59986;SDS011;46181;51.498;5.392;2023-07-24T19:15:24;0.1;;;0.1;;
59986;SDS011;46181;51.498;5.392;2023-07-24T19:19:54;0.056;;;0.056;;
59986;SDS011;46181;51.498;5.392;2023-07-24T19:24:24;0.216;;;0.216;;
59986;SDS011;46181;51.498;5.392;2023-07-24T19:28:54;0;;;0;;
59986;SDS011;46181;51.498;5.392;2023-07-24T19:33:24;0.284;;;0.284;;
59986;SDS011;46181;51.498;5.392;2023-07-24T19:37:54;0.1;;;0.1;;
59986;SDS011;46181;51.498;5.392;2023-07-24T19:42:24;0.1;;;0.1;;
59986;SDS011;46181;51.498;5.392;2023-07-24T19:46:54;0.1;;;0.1;;
59986;SDS011;46181;51.498;5.392;2023-07-24T19:51:24;0;;;0;;
59986;SDS011;46181;51.498;5.392;2023-07-24T19:55:54;0;;;0;;
59986;SDS011;46181;51.498;5.392;2023-07-24T20:00:24;0.1;;;0.1;;
59986;SDS011;46181;51.498;5.392;2023-07-24T20:04:54;0.016;;;0.016;;
59986;SDS011;46181;51.498;5.392;2023-07-24T20:09:24;0.048;;;0.048;;
59986;SDS011;46181;51.498;5.392;2023-07-24T20:13:54;0;;;0;;
59986;SDS011;46181;51.498;5.392;2023-07-24T20:18:24;0.044;;;0.044;;
59986;SDS011;46181;51.498;5.392;2023-07-24T20:22:54;0.016;;;0.016;;
59986;SDS011;46181;51.498;5.392;2023-07-24T20:27:24;0;;;0;;
59986;SDS011;46181;51.498;5.392;2023-07-24T20:31:54;0;;;0;;
59986;SDS011;46181;51.498;5.392;2023-07-24T20:36:24;0;;;0;;
59986;SDS011;46181;51.498;5.392;2023-07-24T20:40:54;0.092;;;0.092;;
59986;SDS011;46181;51.498;5.392;2023-07-24T20:45:24;0.16;;;0.16;;
59986;SDS011;46181;51.498;5.392;2023-07-24T20:49:54;0.024;;;0.024;;
59986;SDS011;46181;51.498;5.392;2023-07-24T20:54:24;0;;;0;;
59986;SDS011;46181;51.498;5.392;2023-07-24T20:58:54;0.092;;;0.092;;
59986;SDS011;46181;51.498;5.392;2023-07-24T21:03:24;0;;;0;;
59986;SDS011;46181;51.498;5.392;2023-07-24T21:07:54;0.004;;;0.004;;
59986;SDS011;46181;51.498;5.392;2023-07-24T21:12:24;2.152;;;0.76;;
59986;SDS011;46181;51.498;5.392;2023-07-24T21:16:54;5.564;;;1.824;;
59986;SDS011;46181;51.498;5.392;2023-07-24T21:21:24;4.852;;;1.768;;
59986;SDS011;46181;51.498;5.392;2023-07-24T21:25:55;6.156;;;2.024;;
59986;SDS011;46181;51.498;5.392;2023-07-24T21:30:24;3.536;;;1.992;;
59986;SDS011;46181;51.498;5.392;2023-07-24T21:34:54;5.184;;;1.804;;
59986;SDS011;46181;51.498;5.392;2023-07-24T21:39:24;5.58;;;1.844;;
59986;SDS011;46181;51.498;5.392;2023-07-24T21:43:54;4.92;;;1.768;;
59986;SDS011;46181;51.498;5.392;2023-07-24T21:48:24;4.660001;;;1.764;;
59986;SDS011;46181;51.498;5.392;2023-07-24T21:52:54;3.904001;;;1.732;;
59986;SDS011;46181;51.498;5.392;2023-07-24T21:57:24;4.924;;;1.812;;
59986;SDS011;46181;51.498;5.392;2023-07-24T22:01:54;4.54;;;1.8;;
59986;SDS011;46181;51.498;5.392;2023-07-24T22:06:24;7.004001;;;2.072;;
59986;SDS011;46181;51.498;5.392;2023-07-24T22:10:54;4.803999;;;1.684;;
59986;SDS011;46181;51.498;5.392;2023-07-24T22:15:24;6.867999;;;1.944;;
59986;SDS011;46181;51.498;5.392;2023-07-24T22:19:54;4.847999;;;2.08;;
59986;SDS011;46181;51.498;5.392;2023-07-24T22:24:24;5.692;;;2.776001;;
59986;SDS011;46181;51.498;5.392;2023-07-24T22:28:54;6.564;;;2.284;;
59986;SDS011;46181;51.498;5.392;2023-07-24T22:33:24;5.26;;;2.148;;
59986;SDS011;46181;51.498;5.392;2023-07-24T22:37:54;6.412001;;;2.420001;;
59986;SDS011;46181;51.498;5.392;2023-07-24T22:42:24;5.992;;;2.264;;
59986;SDS011;46181;51.498;5.392;2023-07-24T22:46:54;5.079999;;;1.984;;
59986;SDS011;46181;51.498;5.392;2023-07-24T22:51:24;3.911999;;;2.24;;
59986;SDS011;46181;51.498;5.392;2023-07-24T22:55:54;4.96;;;2.004;;
59986;SDS011;46181;51.498;5.392;2023-07-24T23:00:24;4.671999;;;1.912;;
59986;SDS011;46181;51.498;5.392;2023-07-24T23:04:54;4.707999;;;2.156;;
59986;SDS011;46181;51.498;5.392;2023-07-24T23:09:24;6.752;;;1.948;;
59986;SDS011;46181;51.498;5.392;2023-07-24T23:13:54;5.464;;;2.044;;
59986;SDS011;46181;51.498;5.392;2023-07-24T23:18:24;3.54;;;2.14;;
59986;SDS011;46181;51.498;5.392;2023-07-24T23:22:54;5.064;;;2.224;;
59986;SDS011;46181;51.498;5.392;2023-07-24T23:27:24;5.560001;;;2.36;;
59986;SDS011;46181;51.498;5.392;2023-07-24T23:31:56;6.896;;;2.716001;;
59986;SDS011;46181;51.498;5.392;2023-07-24T23:36:24;5.88;;;2.684;;
59986;SDS011;46181;51.498;5.392;2023-07-24T23:40:59;7.476001;;;2.944;;
59986;SDS011;46181;51.498;5.392;2023-07-24T23:45:24;4.400001;;;2.756;;
59986;SDS011;46181;51.498;5.392;2023-07-24T23:49:54;6.416;;;2.64;;
59986;SDS011;46181;51.498;5.392;2023-07-24T23:54:24;5.76;;;2.66;;
59986;SDS011;46181;51.498;5.392;2023-07-24T23:58:54;7.972;;;2.976;;
